createdAt,value
2019-03-24T00:00:26.879Z,60.94
2019-03-24T00:02:53.696Z,60.17
2019-03-24T00:05:20.323Z,60.09
2019-03-24T00:07:47.115Z,60.19
2019-03-24T00:10:14.769Z,60.52
2019-03-24T00:12:41.592Z,61.59
2019-03-24T00:15:08.545Z,61.77
2019-03-24T00:17:35.259Z,61.60
2019-03-24T00:20:06.786Z,61.84
2019-03-24T00:22:33.502Z,61.48
2019-03-24T00:25:00.355Z,61.80
2019-03-24T00:27:26.986Z,61.57
2019-03-24T00:29:56.464Z,61.92
2019-03-24T00:32:23.144Z,61.90
2019-03-24T00:34:49.803Z,62.70
2019-03-24T00:37:16.448Z,62.45
2019-03-24T00:39:43.150Z,61.87
2019-03-24T00:42:09.776Z,61.52
2019-03-24T00:44:36.488Z,62.17
2019-03-24T00:47:03.320Z,62.30
2019-03-24T00:49:29.964Z,62.29
2019-03-24T00:51:56.642Z,62.45
2019-03-24T00:54:23.347Z,62.35
2019-03-24T00:56:49.962Z,62.38
2019-03-24T00:59:16.607Z,62.43
2019-03-24T01:01:43.417Z,62.44
2019-03-24T01:04:10.050Z,62.39
2019-03-24T01:06:36.727Z,62.95
2019-03-24T01:09:05.818Z,63.80
2019-03-24T01:11:33.374Z,63.50
2019-03-24T01:14:00.018Z,62.99
2019-03-24T01:16:26.732Z,63.78
2019-03-24T01:18:53.359Z,63.81
2019-03-24T01:21:20.027Z,64.37
2019-03-24T01:23:46.735Z,64.67
2019-03-24T01:26:13.437Z,63.06
2019-03-24T01:28:40.139Z,63.54
2019-03-24T01:31:06.883Z,63.28
2019-03-24T01:33:33.586Z,64.01
2019-03-24T01:36:00.271Z,63.56
2019-03-24T01:38:28.091Z,63.99
2019-03-24T01:40:54.714Z,63.17
2019-03-24T01:43:21.413Z,63.97
2019-03-24T01:45:58.215Z,64.27
2019-03-24T01:48:16.703Z,64.74
2019-03-24T01:50:43.358Z,64.67
2019-03-24T01:53:10.105Z,65.06
2019-03-24T01:55:36.746Z,64.73
2019-03-24T01:58:03.412Z,64.23
2019-03-24T02:00:30.118Z,64.49
2019-03-24T02:02:56.756Z,63.94
2019-03-24T02:05:23.490Z,63.60
2019-03-24T02:07:50.182Z,64.13
2019-03-24T02:10:17.095Z,63.90
2019-03-24T02:12:44.149Z,63.71
2019-03-24T02:15:11.186Z,63.42
2019-03-24T02:17:38.888Z,64.04
2019-03-24T02:20:06.284Z,63.52
2019-03-24T02:22:32.989Z,63.81
2019-03-24T02:24:59.687Z,64.06
2019-03-24T02:27:26.382Z,64.07
2019-03-24T02:29:53.110Z,64.16
2019-03-24T02:32:19.846Z,64.48
2019-03-24T02:34:46.495Z,66.00
2019-03-24T02:37:13.205Z,65.22
2019-03-24T02:39:39.840Z,65.10
2019-03-24T02:42:06.452Z,65.12
2019-03-24T02:44:33.189Z,65.55
2019-03-24T02:46:59.796Z,65.36
2019-03-24T02:49:26.400Z,65.11
2019-03-24T02:51:53.102Z,65.81
2019-03-24T02:54:19.745Z,65.41
2019-03-24T02:56:46.365Z,65.22
2019-03-24T02:59:13.071Z,65.43
2019-03-24T03:01:39.696Z,65.50
2019-03-24T03:04:06.333Z,65.46
2019-03-24T03:06:33.046Z,65.41
2019-03-24T03:08:59.720Z,65.30
2019-03-24T03:11:26.383Z,65.34
2019-03-24T03:13:53.194Z,64.92
2019-03-24T03:16:19.898Z,65.04
2019-03-24T03:18:46.603Z,65.64
2019-03-24T03:21:13.293Z,66.15
2019-03-24T03:23:39.907Z,66.68
2019-03-24T03:26:06.607Z,66.60
2019-03-24T03:28:33.307Z,66.81
2019-03-24T03:31:00.015Z,66.98
2019-03-24T03:33:26.725Z,66.76
2019-03-24T03:35:53.470Z,68.43
2019-03-24T03:38:20.095Z,67.29
2019-03-24T03:40:46.837Z,66.92
2019-03-24T03:43:13.551Z,66.29
2019-03-24T03:45:40.281Z,66.87
2019-03-24T03:48:06.982Z,66.81
2019-03-24T03:50:33.731Z,67.36
2019-03-24T03:53:00.357Z,67.07
2019-03-24T03:55:27.032Z,66.59
2019-03-24T03:57:53.719Z,67.76
2019-03-24T04:00:34.026Z,68.22
2019-03-24T04:03:03.299Z,67.71
2019-03-24T04:05:30.059Z,68.11
2019-03-24T04:07:56.792Z,68.09
2019-03-24T04:10:23.455Z,68.89
2019-03-24T04:12:50.194Z,68.21
2019-03-24T04:15:16.883Z,67.73
2019-03-24T04:17:43.532Z,67.24
2019-03-24T04:20:10.513Z,66.82
2019-03-24T04:22:37.155Z,67.33
2019-03-24T04:25:05.412Z,66.99
2019-03-24T04:27:32.164Z,67.11
2019-03-24T04:29:58.797Z,68.78
2019-03-24T04:32:25.496Z,68.76
2019-03-24T04:34:52.207Z,68.48
2019-03-24T04:37:18.838Z,69.16
2019-03-24T04:39:45.519Z,69.18
2019-03-24T04:42:12.254Z,68.92
2019-03-24T04:44:39.007Z,67.99
2019-03-24T04:47:16.387Z,67.34
2019-03-24T04:49:35.378Z,67.24
2019-03-24T04:52:01.983Z,66.80
2019-03-24T04:54:28.653Z,66.88
2019-03-24T04:56:55.331Z,66.70
2019-03-24T04:59:22.043Z,67.01
2019-03-24T05:01:48.759Z,68.28
2019-03-24T05:04:15.503Z,68.07
2019-03-24T05:06:42.333Z,68.12
2019-03-24T05:09:08.999Z,68.68
2019-03-24T05:11:35.699Z,68.34
2019-03-24T05:14:02.360Z,69.16
2019-03-24T05:16:30.162Z,69.01
2019-03-24T05:18:56.892Z,68.92
2019-03-24T05:21:23.519Z,68.62
2019-03-24T05:23:50.205Z,68.65
2019-03-24T05:26:16.888Z,68.39
2019-03-24T05:28:43.725Z,69.08
2019-03-24T05:31:10.445Z,69.67
2019-03-24T05:33:37.155Z,70.33
2019-03-24T05:36:03.786Z,70.29
2019-03-24T05:38:30.479Z,70.01
2019-03-24T05:40:57.177Z,70.01
2019-03-24T05:43:23.893Z,70.48
2019-03-24T05:45:50.526Z,70.75
2019-03-24T05:48:17.325Z,70.38
2019-03-24T05:50:43.958Z,69.85
2019-03-24T05:53:10.648Z,69.89
2019-03-24T05:55:37.427Z,70.17
2019-03-24T05:58:04.073Z,70.37
2019-03-24T06:00:30.753Z,70.62
2019-03-24T06:02:57.490Z,70.44
2019-03-24T06:05:24.106Z,70.35
2019-03-24T06:07:50.810Z,70.51
2019-03-24T06:10:17.494Z,70.88
2019-03-24T06:12:44.139Z,70.51
2019-03-24T06:15:10.811Z,70.35
2019-03-24T06:17:47.179Z,70.63
2019-03-24T06:20:06.460Z,70.96
2019-03-24T06:22:33.188Z,70.69
2019-03-24T06:24:59.904Z,69.94
2019-03-24T06:27:26.515Z,69.92
2019-03-24T06:29:53.191Z,69.71
2019-03-24T06:32:19.889Z,69.12
2019-03-24T06:34:46.602Z,68.44
2019-03-24T06:37:13.339Z,67.56
2019-03-24T06:39:40.053Z,66.65
2019-03-24T06:42:06.767Z,65.72
2019-03-24T06:44:33.538Z,65.17
2019-03-24T06:47:00.250Z,64.90
2019-03-24T06:49:26.953Z,64.56
2019-03-24T06:51:53.672Z,63.57
2019-03-24T06:54:20.380Z,62.93
2019-03-24T06:56:47.019Z,63.25
2019-03-24T06:59:13.689Z,62.14
2019-03-24T07:01:40.426Z,61.20
2019-03-24T07:04:07.033Z,61.27
2019-03-24T07:06:34.814Z,61.34
2019-03-24T07:09:01.701Z,60.71
2019-03-24T07:11:29.539Z,58.99
2019-03-24T07:13:56.181Z,60.25
2019-03-24T07:16:22.924Z,58.19
2019-03-24T07:18:49.581Z,57.67
2019-03-24T07:21:16.244Z,56.15
2019-03-24T07:23:42.982Z,54.55
2019-03-24T07:26:09.655Z,56.29
2019-03-24T07:28:36.293Z,57.14
2019-03-24T07:31:02.994Z,54.68
2019-03-24T07:33:29.725Z,53.66
2019-03-24T07:35:56.435Z,52.78
2019-03-24T07:38:23.115Z,54.06
2019-03-24T07:40:49.854Z,53.24
2019-03-24T07:43:16.567Z,53.91
2019-03-24T07:45:43.280Z,51.98
2019-03-24T07:48:18.754Z,50.88
2019-03-24T07:50:38.501Z,51.37
2019-03-24T07:53:05.286Z,50.76
2019-03-24T07:55:32.084Z,50.32
2019-03-24T07:57:58.781Z,51.18
2019-03-24T08:00:34.301Z,49.75
2019-03-24T08:03:01.026Z,49.77
2019-03-24T08:05:27.774Z,47.88
2019-03-24T08:07:54.455Z,48.33
2019-03-24T08:10:21.184Z,47.48
2019-03-24T08:12:47.999Z,47.36
2019-03-24T08:15:14.802Z,47.88
2019-03-24T08:17:41.429Z,46.34
2019-03-24T08:20:08.269Z,44.49
2019-03-24T08:22:34.955Z,43.83
2019-03-24T08:25:03.099Z,45.13
2019-03-24T08:27:29.819Z,43.05
2019-03-24T08:29:56.519Z,44.16
2019-03-24T08:32:23.191Z,44.67
2019-03-24T08:34:49.863Z,42.63
2019-03-24T08:37:16.705Z,42.79
2019-03-24T08:39:44.336Z,41.52
2019-03-24T08:42:11.045Z,42.43
2019-03-24T08:44:37.744Z,41.28
2019-03-24T08:47:04.419Z,41.70
2019-03-24T08:49:32.083Z,40.71
2019-03-24T08:51:58.818Z,41.32
2019-03-24T08:54:25.435Z,40.98
2019-03-24T08:56:52.091Z,40.65
2019-03-24T08:59:18.830Z,41.04
2019-03-24T09:01:45.489Z,40.70
2019-03-24T09:04:12.353Z,40.35
2019-03-24T09:06:39.074Z,42.20
2019-03-24T09:09:06.182Z,41.43
2019-03-24T09:11:32.859Z,41.82
2019-03-24T09:13:59.556Z,41.36
2019-03-24T09:16:26.257Z,40.01
2019-03-24T09:18:53.208Z,39.63
2019-03-24T09:21:21.187Z,39.98
2019-03-24T09:23:47.786Z,42.39
2019-03-24T09:26:14.508Z,39.64
2019-03-24T09:28:41.185Z,39.22
2019-03-24T09:31:07.940Z,36.35
2019-03-24T09:33:34.670Z,38.35
2019-03-24T09:36:01.425Z,37.69
2019-03-24T09:38:28.033Z,36.54
2019-03-24T09:40:54.735Z,36.83
2019-03-24T09:43:21.401Z,34.91
2019-03-24T09:45:48.107Z,34.75
2019-03-24T09:48:14.822Z,36.16
2019-03-24T09:50:41.534Z,33.71
2019-03-24T09:53:08.159Z,34.08
2019-03-24T09:55:34.834Z,33.42
2019-03-24T09:58:01.543Z,33.79
2019-03-24T10:00:28.178Z,33.71
2019-03-24T10:02:54.926Z,33.39
2019-03-24T10:05:22.063Z,32.28
2019-03-24T10:07:48.731Z,31.38
2019-03-24T10:10:15.502Z,30.89
2019-03-24T10:12:42.225Z,31.27
2019-03-24T10:15:08.962Z,31.94
2019-03-24T10:17:35.678Z,29.77
2019-03-24T10:20:02.469Z,30.48
2019-03-24T10:22:29.257Z,29.00
2019-03-24T10:24:55.991Z,27.53
2019-03-24T10:27:22.731Z,28.00
2019-03-24T10:29:49.353Z,27.96
2019-03-24T10:32:15.986Z,27.79
2019-03-24T10:34:42.737Z,29.93
2019-03-24T10:37:09.361Z,27.18
2019-03-24T10:39:35.992Z,30.33
2019-03-24T10:42:02.818Z,27.48
2019-03-24T10:44:29.456Z,27.54
2019-03-24T10:46:56.180Z,25.32
2019-03-24T10:49:25.121Z,25.32
2019-03-24T10:51:51.435Z,26.22
2019-03-24T10:54:18.084Z,27.39
2019-03-24T10:56:45.801Z,26.49
2019-03-24T10:59:12.405Z,25.80
2019-03-24T11:01:39.026Z,25.25
2019-03-24T11:04:06.168Z,25.25
2019-03-24T11:06:32.866Z,27.72
2019-03-24T11:08:59.529Z,25.31
2019-03-24T11:11:26.232Z,25.46
2019-03-24T11:13:52.873Z,29.12
2019-03-24T11:16:19.578Z,27.46
2019-03-24T11:18:46.254Z,25.67
2019-03-24T11:21:12.933Z,24.66
2019-03-24T11:23:40.593Z,23.06
2019-03-24T11:26:07.350Z,23.64
2019-03-24T11:28:33.983Z,25.00
2019-03-24T11:31:00.711Z,23.84
2019-03-24T11:33:29.558Z,23.98
2019-03-24T11:35:56.070Z,26.02
2019-03-24T11:38:22.817Z,26.72
2019-03-24T11:40:49.541Z,24.58
2019-03-24T11:43:16.415Z,26.75
2019-03-24T11:45:43.161Z,26.03
2019-03-24T11:48:09.919Z,23.72
2019-03-24T11:50:36.528Z,24.14
2019-03-24T11:53:03.211Z,23.86
2019-03-24T11:55:29.924Z,24.22
2019-03-24T11:58:05.355Z,24.63
2019-03-24T12:00:32.785Z,24.10
2019-03-24T12:02:59.533Z,24.14
2019-03-24T12:05:26.179Z,22.95
2019-03-24T12:07:52.835Z,23.26
2019-03-24T12:10:19.600Z,23.55
2019-03-24T12:12:46.237Z,23.50
2019-03-24T12:15:12.926Z,21.11
2019-03-24T12:17:39.707Z,22.45
2019-03-24T12:20:07.531Z,21.63
2019-03-24T12:22:34.160Z,20.21
2019-03-24T12:25:00.913Z,21.74
2019-03-24T12:27:27.549Z,23.53
2019-03-24T12:29:54.236Z,21.80
2019-03-24T12:32:20.930Z,19.13
2019-03-24T12:34:47.647Z,19.12
2019-03-24T12:37:14.756Z,19.92
2019-03-24T12:39:41.498Z,20.87
2019-03-24T12:42:08.186Z,21.53
2019-03-24T12:44:34.846Z,20.67
2019-03-24T12:47:01.583Z,20.89
2019-03-24T12:49:28.323Z,19.91
2019-03-24T12:51:54.995Z,19.76
2019-03-24T12:54:22.778Z,20.45
2019-03-24T12:56:49.435Z,20.27
2019-03-24T12:59:16.114Z,20.84
2019-03-24T13:01:42.884Z,25.25
2019-03-24T13:04:09.491Z,23.21
2019-03-24T13:06:36.217Z,20.88
2019-03-24T13:09:05.121Z,22.11
2019-03-24T13:11:31.787Z,22.14
2019-03-24T13:13:58.526Z,21.09
2019-03-24T13:16:25.225Z,20.72
2019-03-24T13:18:51.958Z,22.59
2019-03-24T13:21:18.685Z,21.76
2019-03-24T13:23:45.429Z,21.54
2019-03-24T13:26:13.030Z,22.15
2019-03-24T13:28:39.667Z,21.56
2019-03-24T13:31:06.368Z,21.59
2019-03-24T13:33:32.972Z,20.66
2019-03-24T13:36:01.474Z,19.58
2019-03-24T13:38:28.173Z,18.73
2019-03-24T13:40:54.887Z,19.00
2019-03-24T13:43:21.531Z,19.15
2019-03-24T13:45:48.322Z,20.16
2019-03-24T13:48:14.954Z,18.44
2019-03-24T13:50:41.633Z,19.09
2019-03-24T13:53:08.429Z,21.06
2019-03-24T13:55:35.085Z,20.36
2019-03-24T13:58:01.943Z,19.96
2019-03-24T14:00:28.674Z,19.54
2019-03-24T14:02:55.277Z,18.23
2019-03-24T14:05:21.954Z,17.88
2019-03-24T14:07:48.669Z,18.01
2019-03-24T14:10:15.307Z,17.90
2019-03-24T14:12:41.973Z,18.50
2019-03-24T14:15:08.794Z,19.42
2019-03-24T14:17:36.530Z,19.06
2019-03-24T14:20:05.526Z,18.34
2019-03-24T14:22:32.324Z,19.49
2019-03-24T14:24:58.957Z,19.52
2019-03-24T14:27:25.708Z,21.76
2019-03-24T14:29:52.489Z,19.76
2019-03-24T14:32:19.218Z,19.79
2019-03-24T14:34:45.939Z,20.18
2019-03-24T14:37:12.675Z,18.58
2019-03-24T14:39:39.308Z,19.18
2019-03-24T14:42:06.000Z,19.59
2019-03-24T14:44:32.706Z,17.93
2019-03-24T14:46:59.347Z,18.67
2019-03-24T14:49:26.089Z,18.36
2019-03-24T14:51:52.796Z,18.47
2019-03-24T14:54:19.429Z,18.48
2019-03-24T14:56:46.096Z,18.88
2019-03-24T14:59:12.816Z,18.86
2019-03-24T15:01:39.439Z,19.29
2019-03-24T15:04:06.132Z,19.90
2019-03-24T15:06:32.839Z,19.42
2019-03-24T15:08:59.506Z,20.63
2019-03-24T15:11:26.168Z,20.49
2019-03-24T15:13:52.898Z,19.93
2019-03-24T15:16:19.503Z,21.84
2019-03-24T15:18:46.208Z,19.59
2019-03-24T15:21:12.946Z,19.76
2019-03-24T15:23:39.622Z,20.49
2019-03-24T15:26:06.332Z,20.87
2019-03-24T15:28:33.190Z,21.41
2019-03-24T15:30:59.826Z,21.24
2019-03-24T15:33:26.509Z,21.39
2019-03-24T15:35:53.226Z,21.25
2019-03-24T15:38:19.934Z,21.42
2019-03-24T15:40:49.500Z,21.37
2019-03-24T15:43:15.322Z,21.21
2019-03-24T15:45:41.962Z,21.96
2019-03-24T15:48:08.756Z,22.09
2019-03-24T15:50:35.467Z,22.09
2019-03-24T15:53:02.225Z,22.16
2019-03-24T15:55:28.950Z,22.77
2019-03-24T15:57:55.658Z,22.77
2019-03-24T16:00:39.982Z,22.47
2019-03-24T16:03:06.674Z,23.13
2019-03-24T16:05:33.377Z,23.13
2019-03-24T16:08:00.110Z,23.17
2019-03-24T16:10:34.848Z,23.15
2019-03-24T16:12:55.524Z,23.72
2019-03-24T16:15:22.130Z,24.51
2019-03-24T16:17:48.794Z,25.40
2019-03-24T16:20:15.493Z,25.84
2019-03-24T16:22:42.150Z,25.84
2019-03-24T16:25:09.193Z,25.09
2019-03-24T16:27:35.877Z,25.21
2019-03-24T16:30:05.470Z,24.34
2019-03-24T16:32:32.214Z,23.87
2019-03-24T16:34:58.976Z,22.81
2019-03-24T16:37:25.650Z,22.36
2019-03-24T16:39:52.347Z,21.85
2019-03-24T16:42:19.050Z,21.18
2019-03-24T16:44:45.754Z,21.28
2019-03-24T16:47:12.491Z,20.90
2019-03-24T16:49:39.210Z,21.26
2019-03-24T16:52:05.812Z,21.31
2019-03-24T16:54:32.471Z,21.35
2019-03-24T16:56:59.190Z,21.40
2019-03-24T16:59:25.843Z,21.95
2019-03-24T17:01:52.462Z,22.26
2019-03-24T17:04:19.258Z,22.19
2019-03-24T17:06:45.882Z,22.42
2019-03-24T17:09:12.491Z,22.61
2019-03-24T17:11:39.187Z,22.66
2019-03-24T17:14:05.852Z,22.99
2019-03-24T17:16:32.487Z,23.24
2019-03-24T17:18:59.180Z,23.75
2019-03-24T17:21:25.822Z,24.16
2019-03-24T17:23:52.452Z,24.48
2019-03-24T17:26:19.141Z,24.86
2019-03-24T17:28:46.973Z,24.99
2019-03-24T17:31:14.693Z,25.18
2019-03-24T17:33:41.423Z,25.47
2019-03-24T17:36:08.147Z,25.55
2019-03-24T17:38:34.844Z,26.15
2019-03-24T17:41:01.544Z,26.66
2019-03-24T17:43:28.233Z,27.03
2019-03-24T17:45:54.931Z,27.32
2019-03-24T17:48:21.659Z,27.72
2019-03-24T17:50:48.299Z,27.78
2019-03-24T17:53:14.961Z,27.83
2019-03-24T17:55:41.682Z,27.90
2019-03-24T17:58:08.339Z,27.71
2019-03-24T18:00:40.434Z,27.93
2019-03-24T18:03:07.309Z,28.08
2019-03-24T18:05:34.005Z,28.45
2019-03-24T18:08:00.733Z,28.56
2019-03-24T18:10:27.475Z,28.94
2019-03-24T18:12:54.108Z,29.02
2019-03-24T18:15:20.798Z,29.05
2019-03-24T18:17:47.496Z,29.12
2019-03-24T18:20:17.843Z,29.56
2019-03-24T18:22:44.571Z,29.51
2019-03-24T18:25:11.311Z,29.48
2019-03-24T18:27:37.920Z,29.89
2019-03-24T18:30:07.389Z,30.17
2019-03-24T18:32:34.199Z,30.57
2019-03-24T18:35:00.802Z,31.00
2019-03-24T18:37:27.497Z,30.99
2019-03-24T18:39:54.204Z,31.38
2019-03-24T18:42:20.912Z,30.91
2019-03-24T18:44:47.705Z,31.13
2019-03-24T18:47:14.530Z,31.06
2019-03-24T18:49:41.155Z,31.30
2019-03-24T18:52:08.046Z,31.22
2019-03-24T18:54:34.722Z,31.49
2019-03-24T18:57:01.440Z,32.00
2019-03-24T18:59:28.232Z,31.78
2019-03-24T19:01:55.018Z,31.72
2019-03-24T19:04:21.697Z,32.09
2019-03-24T19:06:48.372Z,32.19
2019-03-24T19:09:15.119Z,32.28
2019-03-24T19:11:41.718Z,32.29
2019-03-24T19:14:08.393Z,32.16
2019-03-24T19:16:35.126Z,32.29
2019-03-24T19:19:01.891Z,32.35
2019-03-24T19:21:28.524Z,32.60
2019-03-24T19:23:56.000Z,32.82
2019-03-24T19:26:22.758Z,33.15
2019-03-24T19:28:49.469Z,32.98
2019-03-24T19:31:16.138Z,33.01
2019-03-24T19:33:42.853Z,33.10
2019-03-24T19:36:09.660Z,33.33
2019-03-24T19:38:36.649Z,33.72
2019-03-24T19:41:03.254Z,33.57
2019-03-24T19:43:29.950Z,34.22
2019-03-24T19:45:56.658Z,35.48
2019-03-24T19:48:23.380Z,35.55
2019-03-24T19:50:50.222Z,35.30
2019-03-24T19:53:16.940Z,36.14
2019-03-24T19:55:43.569Z,36.51
2019-03-24T19:58:10.269Z,37.23
2019-03-24T20:00:36.968Z,37.32
2019-03-24T20:03:04.604Z,36.80
2019-03-24T20:05:31.246Z,37.44
2019-03-24T20:07:58.099Z,37.62
2019-03-24T20:10:24.710Z,37.84
2019-03-24T20:12:51.394Z,38.14
2019-03-24T20:15:18.055Z,38.11
2019-03-24T20:17:44.706Z,38.25
2019-03-24T20:20:11.380Z,38.58
2019-03-24T20:22:38.091Z,39.15
2019-03-24T20:25:06.544Z,39.48
2019-03-24T20:27:33.322Z,39.80
2019-03-24T20:30:00.041Z,40.03
2019-03-24T20:32:26.817Z,40.35
2019-03-24T20:34:53.527Z,40.54
2019-03-24T20:37:20.303Z,40.97
2019-03-24T20:39:47.050Z,40.95
2019-03-24T20:42:13.766Z,41.09
2019-03-24T20:44:40.486Z,41.36
2019-03-24T20:47:07.130Z,41.46
2019-03-24T20:49:33.950Z,41.37
2019-03-24T20:52:00.670Z,41.61
2019-03-24T20:54:27.386Z,41.87
2019-03-24T20:56:54.196Z,42.32
2019-03-24T20:59:21.257Z,42.58
2019-03-24T21:01:47.867Z,42.86
2019-03-24T21:04:14.546Z,42.84
2019-03-24T21:06:41.254Z,43.21
2019-03-24T21:09:08.226Z,43.34
2019-03-24T21:11:34.972Z,42.99
2019-03-24T21:14:01.676Z,43.36
2019-03-24T21:16:28.340Z,43.65
2019-03-24T21:18:55.001Z,43.72
2019-03-24T21:21:22.833Z,44.42
2019-03-24T21:23:49.471Z,44.67
2019-03-24T21:26:16.147Z,44.69
2019-03-24T21:28:42.839Z,43.66
2019-03-24T21:31:09.483Z,43.86
2019-03-24T21:33:36.144Z,44.62
2019-03-24T21:36:04.075Z,45.29
2019-03-24T21:38:31.078Z,45.54
2019-03-24T21:40:57.710Z,45.94
2019-03-24T21:43:24.495Z,45.59
2019-03-24T21:45:51.119Z,45.43
2019-03-24T21:48:17.798Z,45.45
2019-03-24T21:50:44.478Z,43.48
2019-03-24T21:53:11.128Z,43.04
2019-03-24T21:55:37.785Z,42.99
2019-03-24T21:58:05.526Z,42.53
2019-03-24T22:00:33.728Z,42.61
2019-03-24T22:03:00.432Z,42.31
2019-03-24T22:05:27.129Z,41.74
2019-03-24T22:07:53.774Z,42.00
2019-03-24T22:10:21.447Z,42.49
2019-03-24T22:12:48.173Z,42.45
2019-03-24T22:15:14.941Z,42.96
2019-03-24T22:17:41.645Z,43.10
2019-03-24T22:20:08.455Z,43.32
2019-03-24T22:22:35.070Z,43.21
2019-03-24T22:25:01.750Z,43.99
2019-03-24T22:27:28.418Z,43.68
2019-03-24T22:29:55.121Z,44.12
2019-03-24T22:32:21.830Z,44.46
2019-03-24T22:34:48.575Z,44.87
2019-03-24T22:37:16.238Z,45.04
2019-03-24T22:39:43.138Z,45.54
2019-03-24T22:42:09.841Z,46.17
2019-03-24T22:44:36.523Z,46.63
2019-03-24T22:47:03.239Z,46.20
2019-03-24T22:49:29.937Z,46.40
2019-03-24T22:52:06.804Z,46.63
2019-03-24T22:54:25.389Z,46.81
2019-03-24T22:56:52.128Z,47.01
2019-03-24T22:59:18.847Z,47.43
2019-03-24T23:01:45.516Z,47.23
2019-03-24T23:04:12.210Z,47.34
2019-03-24T23:06:38.994Z,47.81
2019-03-24T23:09:06.891Z,48.05
2019-03-24T23:11:33.627Z,48.35
2019-03-24T23:14:00.259Z,48.66
2019-03-24T23:16:26.921Z,49.45
2019-03-24T23:18:53.630Z,49.09
2019-03-24T23:21:20.238Z,48.94
2019-03-24T23:23:46.869Z,49.58
2019-03-24T23:26:13.545Z,49.57
2019-03-24T23:28:40.182Z,49.71
2019-03-24T23:31:06.856Z,49.45
2019-03-24T23:33:33.558Z,50.30
2019-03-24T23:36:00.158Z,50.94
2019-03-24T23:38:26.837Z,50.60
2019-03-24T23:40:53.515Z,50.30
2019-03-24T23:43:20.160Z,50.37
2019-03-24T23:45:46.758Z,50.90
2019-03-24T23:48:13.454Z,50.70
2019-03-24T23:50:40.127Z,50.89
2019-03-24T23:53:06.800Z,50.95
2019-03-24T23:55:33.552Z,50.92
2019-03-24T23:58:00.190Z,50.97
